createdAt,value
2023-05-12T00:01:16.836Z,100773.64
2023-05-12T00:03:48.482Z,100774.07
2023-05-12T00:06:20.044Z,100772.15
2023-05-12T00:08:51.874Z,100776.51
2023-05-12T00:11:23.491Z,100774.70
2023-05-12T00:13:55.677Z,100773.90
2023-05-12T00:16:26.874Z,100770.47
2023-05-12T00:18:58.660Z,100767.79
2023-05-12T00:21:30.192Z,100764.88
2023-05-12T00:24:01.419Z,100760.69
2023-05-12T00:26:32.829Z,100760.91
2023-05-12T00:29:04.674Z,100762.58
2023-05-12T00:31:36.612Z,100756.42
2023-05-12T00:34:09.120Z,100755.08
2023-05-12T00:36:41.592Z,100752.98
2023-05-12T00:39:13.787Z,100751.58
2023-05-12T00:41:45.173Z,100749.75
2023-05-12T00:44:18.505Z,100749.27
2023-05-12T00:46:50.544Z,100748.80
2023-05-12T00:49:22.733Z,100747.81
2023-05-12T00:51:55.669Z,100744.80
2023-05-12T00:54:28.159Z,100746.89
2023-05-12T00:57:00.419Z,100745.00
2023-05-12T00:59:31.892Z,100747.80
2023-05-12T01:02:04.431Z,100751.95
2023-05-12T01:04:37.689Z,100749.33
2023-05-12T01:07:16.161Z,100749.95
2023-05-12T01:09:47.620Z,100751.53
2023-05-12T01:12:21.843Z,100751.84
2023-05-12T01:14:54.858Z,100747.01
2023-05-12T01:17:33.089Z,100746.26
2023-05-12T01:20:09.086Z,100745.60
2023-05-12T01:22:42.470Z,100742.85
2023-05-12T01:25:16.968Z,100741.46
2023-05-12T01:27:49.817Z,100738.65
2023-05-12T01:30:23.338Z,100737.23
2023-05-12T01:32:55.239Z,100743.98
2023-05-12T01:35:27.240Z,100745.13
2023-05-12T01:38:02.965Z,100748.80
2023-05-12T01:40:35.086Z,100750.20
2023-05-12T01:43:06.354Z,100747.48
2023-05-12T01:45:38.783Z,100746.35
2023-05-12T01:48:10.211Z,100747.77
2023-05-12T01:50:42.557Z,100746.70
2023-05-12T01:53:19.024Z,100745.80
2023-05-12T01:55:50.068Z,100744.40
2023-05-12T01:58:22.269Z,100740.89
2023-05-12T02:00:53.576Z,100732.98
2023-05-12T02:03:25.498Z,100727.48
2023-05-12T02:05:56.784Z,100721.38
2023-05-12T02:08:28.145Z,100722.08
2023-05-12T02:11:08.822Z,100723.02
2023-05-12T02:13:40.885Z,100728.94
2023-05-12T02:16:12.251Z,100732.14
2023-05-12T02:18:44.560Z,100735.61
2023-05-12T02:21:16.724Z,100726.73
2023-05-12T02:23:48.140Z,100727.09
2023-05-12T02:26:20.035Z,100725.70
2023-05-12T02:28:51.738Z,100726.45
2023-05-12T02:31:23.317Z,100728.70
2023-05-12T02:33:55.572Z,100730.49
2023-05-12T02:36:27.584Z,100734.79
2023-05-12T02:38:59.086Z,100738.19
2023-05-12T02:41:30.744Z,100736.93
2023-05-12T02:44:02.918Z,100734.16
2023-05-12T02:46:34.390Z,100728.44
2023-05-12T02:49:06.191Z,100727.59
2023-05-12T02:51:37.403Z,100728.45
2023-05-12T02:54:09.236Z,100725.02
2023-05-12T02:56:41.014Z,100722.46
2023-05-12T02:59:12.469Z,100716.75
2023-05-12T03:01:43.897Z,100718.37
2023-05-12T03:04:15.435Z,100714.85
2023-05-12T03:06:47.616Z,100726.73
2023-05-12T03:09:19.024Z,100733.37
2023-05-12T03:11:50.531Z,100743.30
2023-05-12T03:14:21.957Z,100747.30
2023-05-12T03:16:54.086Z,100753.73
2023-05-12T03:19:25.689Z,100757.17
2023-05-12T03:21:57.549Z,100756.70
2023-05-12T03:24:29.672Z,100755.81
2023-05-12T03:27:01.386Z,100754.95
2023-05-12T03:29:32.917Z,100758.98
2023-05-12T03:32:04.897Z,100759.45
2023-05-12T03:34:36.263Z,100759.77
2023-05-12T03:37:08.231Z,100762.91
2023-05-12T03:39:39.741Z,100760.20
2023-05-12T03:42:11.493Z,100756.30
2023-05-12T03:44:43.902Z,100750.08
2023-05-12T03:47:15.610Z,100746.25
2023-05-12T03:49:48.154Z,100745.11
2023-05-12T03:52:19.762Z,100736.30
2023-05-12T03:54:52.432Z,100734.08
2023-05-12T03:57:25.163Z,100732.41
2023-05-12T03:59:56.473Z,100734.23
2023-05-12T04:02:28.250Z,100731.02
2023-05-12T04:05:00.214Z,100729.15
2023-05-12T04:07:31.998Z,100729.36
2023-05-12T04:10:03.767Z,100725.80
2023-05-12T04:12:35.480Z,100728.63
2023-05-12T04:15:09.031Z,100731.86
2023-05-12T04:17:40.756Z,100732.73
2023-05-12T04:20:13.334Z,100737.75
2023-05-12T04:22:45.576Z,100746.66
2023-05-12T04:25:16.989Z,100748.14
2023-05-12T04:27:49.013Z,100749.20
2023-05-12T04:30:22.435Z,100752.39
2023-05-12T04:32:54.219Z,100749.31
2023-05-12T04:35:26.183Z,100748.11
2023-05-12T04:37:57.563Z,100741.06
2023-05-12T04:40:29.309Z,100742.28
2023-05-12T04:43:01.298Z,100740.08
2023-05-12T04:45:33.059Z,100741.80
2023-05-12T04:48:04.827Z,100740.16
2023-05-12T04:50:36.183Z,100739.69
2023-05-12T04:53:07.419Z,100741.73
2023-05-12T04:55:39.281Z,100745.44
2023-05-12T04:58:10.746Z,100753.17
2023-05-12T05:00:42.363Z,100749.09
2023-05-12T05:03:14.798Z,100751.73
2023-05-12T05:05:46.509Z,100753.84
2023-05-12T05:08:17.751Z,100762.89
2023-05-12T05:10:49.311Z,100765.00
2023-05-12T05:13:20.666Z,100766.64
2023-05-12T05:15:57.727Z,100761.67
2023-05-12T05:18:30.847Z,100765.54
2023-05-12T05:21:03.089Z,100765.41
2023-05-12T05:23:36.811Z,100764.85
2023-05-12T05:26:08.459Z,100767.36
2023-05-12T05:28:40.786Z,100772.87
2023-05-12T05:31:18.300Z,100775.92
2023-05-12T05:33:51.516Z,100778.13
2023-05-12T05:36:23.291Z,100781.77
2023-05-12T05:38:54.736Z,100783.97
2023-05-12T05:41:26.117Z,100790.55
2023-05-12T05:43:57.855Z,100791.81
2023-05-12T05:46:29.481Z,100794.61
2023-05-12T05:49:01.050Z,100798.39
2023-05-12T05:51:33.623Z,100798.15
2023-05-12T05:54:05.104Z,100798.80
2023-05-12T05:56:36.775Z,100798.23
2023-05-12T05:59:08.820Z,100802.17
2023-05-12T06:01:40.884Z,100809.60
2023-05-12T06:04:12.203Z,100815.92
2023-05-12T06:06:43.913Z,100811.80
2023-05-12T06:09:15.867Z,100811.70
2023-05-12T06:11:47.318Z,100804.83
2023-05-12T06:14:19.855Z,100798.70
2023-05-12T06:16:52.156Z,100794.80
2023-05-12T06:19:24.089Z,100792.38
2023-05-12T06:21:55.666Z,100788.23
2023-05-12T06:24:27.325Z,100790.12
2023-05-12T06:26:59.192Z,100796.08
2023-05-12T06:29:30.561Z,100796.20
2023-05-12T06:32:01.991Z,100798.67
2023-05-12T06:34:34.745Z,100802.02
2023-05-12T06:37:07.392Z,100803.02
2023-05-12T06:39:39.290Z,100805.41
2023-05-12T06:42:11.519Z,100809.13
2023-05-12T06:44:46.504Z,100812.64
2023-05-12T06:47:18.038Z,100815.77
2023-05-12T06:49:50.150Z,100814.27
2023-05-12T06:52:23.985Z,100816.02
2023-05-12T06:54:55.324Z,100821.38
2023-05-12T06:57:26.834Z,100824.48
2023-05-12T06:59:58.277Z,100829.22
2023-05-12T07:02:29.843Z,100827.37
2023-05-12T07:05:02.057Z,100828.49
2023-05-12T07:07:33.601Z,100833.11
2023-05-12T07:10:06.651Z,100835.36
2023-05-12T07:12:38.486Z,100838.46
2023-05-12T07:15:12.093Z,100844.48
2023-05-12T07:17:43.763Z,100849.23
2023-05-12T07:20:15.989Z,100855.98
2023-05-12T07:22:47.274Z,100863.71
2023-05-12T07:25:19.160Z,100866.46
2023-05-12T07:27:51.298Z,100873.41
2023-05-12T07:30:23.371Z,100873.42
2023-05-12T07:32:54.806Z,100880.05
2023-05-12T07:35:26.180Z,100888.75
2023-05-12T07:37:57.562Z,100897.02
2023-05-12T07:40:28.924Z,100902.40
2023-05-12T07:43:00.379Z,100903.29
2023-05-12T07:45:31.986Z,100892.74
2023-05-12T07:48:03.769Z,100888.31
2023-05-12T07:50:35.380Z,100891.98
2023-05-12T07:53:06.962Z,100892.42
2023-05-12T07:55:38.281Z,100890.34
2023-05-12T07:58:09.533Z,100886.58
2023-05-12T08:00:40.911Z,100886.92
2023-05-12T08:03:12.160Z,100886.41
2023-05-12T08:05:43.985Z,100882.98
2023-05-12T08:08:17.159Z,100886.27
2023-05-12T08:10:48.842Z,100887.28
2023-05-12T08:13:20.410Z,100891.39
2023-05-12T08:15:51.945Z,100893.89
2023-05-12T08:18:23.501Z,100898.89
2023-05-12T08:20:55.889Z,100902.84
2023-05-12T08:23:27.335Z,100904.09
2023-05-12T08:25:59.006Z,100906.33
2023-05-12T08:28:30.441Z,100902.71
2023-05-12T08:31:04.109Z,100905.14
2023-05-12T08:33:37.139Z,100908.34
2023-05-12T08:36:09.946Z,100912.80
2023-05-12T08:38:41.448Z,100910.65
2023-05-12T08:41:17.920Z,100908.48
2023-05-12T08:43:52.931Z,100910.38
2023-05-12T08:46:25.040Z,100908.95
2023-05-12T08:48:57.016Z,100912.90
2023-05-12T08:51:29.592Z,100917.38
2023-05-12T08:54:00.812Z,100912.83
2023-05-12T08:59:09.753Z,100915.25
2023-05-12T09:01:43.149Z,100921.38
2023-05-12T09:04:15.910Z,100918.98
2023-05-12T09:06:47.899Z,100918.27
2023-05-12T09:09:20.778Z,100916.59
2023-05-12T09:11:57.767Z,100917.84
2023-05-12T09:14:30.809Z,100921.39
2023-05-12T09:17:06.283Z,100925.09
2023-05-12T09:19:38.208Z,100924.99
2023-05-12T09:22:14.950Z,100929.25
2023-05-12T09:24:46.898Z,100926.48
2023-05-12T09:27:27.918Z,100930.73
2023-05-12T09:29:59.976Z,100931.66
2023-05-12T09:32:36.848Z,100931.56
2023-05-12T09:35:11.471Z,100928.70
2023-05-12T09:37:43.071Z,100930.69
2023-05-12T09:40:17.559Z,100924.40
2023-05-12T09:42:49.615Z,100927.20
2023-05-12T09:45:22.893Z,100925.23
2023-05-12T09:47:54.367Z,100932.10
2023-05-12T09:50:27.543Z,100931.65
2023-05-12T09:53:00.336Z,100930.58
2023-05-12T09:55:32.444Z,100930.66
2023-05-12T09:58:06.507Z,100928.71
2023-05-12T10:01:06.100Z,100929.02
2023-05-12T10:03:34.789Z,100929.30
2023-05-12T10:06:09.418Z,100930.66
2023-05-12T10:08:43.615Z,100933.52
2023-05-12T10:11:15.831Z,100928.02
2023-05-12T10:13:48.390Z,100924.80
2023-05-12T10:16:21.864Z,100927.95
2023-05-12T10:18:54.132Z,100931.74
2023-05-12T10:21:27.035Z,100937.20
2023-05-12T10:23:59.148Z,100944.77
2023-05-12T10:26:31.091Z,100947.47
2023-05-12T10:29:03.128Z,100949.16
2023-05-12T10:31:36.306Z,100949.26
2023-05-12T10:34:08.215Z,100955.72
2023-05-12T10:36:50.255Z,100953.90
2023-05-12T10:39:21.531Z,100957.60
2023-05-12T10:42:01.743Z,100957.98
2023-05-12T10:44:33.202Z,100961.61
2023-05-12T10:47:14.933Z,100963.35
2023-05-12T10:49:46.828Z,100964.10
2023-05-12T10:52:24.435Z,100961.27
2023-05-12T10:55:04.312Z,100961.05
2023-05-12T10:57:36.581Z,100964.33
2023-05-12T11:00:16.467Z,100962.85
2023-05-12T11:02:54.751Z,100962.40
2023-05-12T11:05:37.724Z,100963.21
2023-05-12T11:08:10.050Z,100968.11
2023-05-12T11:10:44.534Z,100974.10
2023-05-12T11:13:15.585Z,100973.64
2023-05-12T11:15:49.054Z,100973.61
2023-05-12T11:18:24.668Z,100970.45
2023-05-12T11:20:56.163Z,100970.98
2023-05-12T11:23:32.161Z,100968.91
2023-05-12T11:26:05.125Z,100968.77
2023-05-12T11:28:43.689Z,100969.27
2023-05-12T11:31:21.317Z,100965.58
2023-05-12T11:34:11.872Z,100965.04
2023-05-12T11:36:46.632Z,100966.19
2023-05-12T11:39:20.955Z,100963.02
2023-05-12T11:41:59.321Z,100962.23
2023-05-12T11:44:37.652Z,100958.41
2023-05-12T11:47:16.899Z,100957.44
2023-05-12T11:49:53.175Z,100954.45
2023-05-12T11:52:26.122Z,100954.87
2023-05-12T11:55:02.090Z,100958.75
2023-05-12T11:57:36.047Z,100962.42
2023-05-12T12:00:10.140Z,100966.66
2023-05-12T12:02:43.899Z,100957.20
2023-05-12T12:05:21.952Z,100957.18
2023-05-12T12:07:53.913Z,100957.73
2023-05-12T12:10:25.665Z,100963.11
2023-05-12T12:12:56.900Z,100963.39
2023-05-12T12:15:28.220Z,100957.75
2023-05-12T12:18:00.135Z,100958.77
2023-05-12T12:20:32.052Z,100960.04
2023-05-12T12:23:03.557Z,100956.00
2023-05-12T12:25:35.036Z,100951.80
2023-05-12T12:28:06.749Z,100948.41
2023-05-12T12:30:38.306Z,100948.92
2023-05-12T12:33:10.477Z,100952.67
2023-05-12T12:35:42.079Z,100954.02
2023-05-12T12:38:13.723Z,100949.84
2023-05-12T12:40:44.862Z,100948.29
2023-05-12T12:43:16.565Z,100951.70
2023-05-12T12:45:48.687Z,100951.55
2023-05-12T12:48:19.987Z,100951.70
2023-05-12T12:50:51.299Z,100949.10
2023-05-12T12:53:22.688Z,100948.31
2023-05-12T12:55:54.404Z,100953.78
2023-05-12T12:58:25.894Z,100949.98
2023-05-12T13:00:57.095Z,100946.66
2023-05-12T13:03:28.906Z,100949.53
2023-05-12T13:06:00.580Z,100948.67
2023-05-12T13:08:32.451Z,100949.56
2023-05-12T13:11:04.310Z,100944.99
2023-05-12T13:13:36.029Z,100942.69
2023-05-12T13:16:08.690Z,100943.08
2023-05-12T13:18:40.076Z,100940.63
2023-05-12T13:21:11.541Z,100944.56
2023-05-12T13:23:43.165Z,100944.84
2023-05-12T13:26:15.079Z,100946.98
2023-05-12T13:28:46.583Z,100949.89
2023-05-12T13:31:17.964Z,100951.48
2023-05-12T13:33:49.495Z,100950.04
2023-05-12T13:36:20.843Z,100946.71
2023-05-12T13:38:52.426Z,100947.16
2023-05-12T13:41:23.562Z,100944.34
2023-05-12T13:43:54.889Z,100941.80
2023-05-12T13:46:26.701Z,100944.52
2023-05-12T13:48:58.163Z,100944.64
2023-05-12T13:51:29.751Z,100939.17
2023-05-12T13:54:01.366Z,100935.91
2023-05-12T13:56:32.771Z,100933.20
2023-05-12T13:59:03.782Z,100936.02
2023-05-12T14:01:35.509Z,100933.80
2023-05-12T14:04:07.121Z,100941.08
2023-05-12T14:06:38.352Z,100938.95
2023-05-12T14:09:10.419Z,100944.69
2023-05-12T14:11:41.766Z,100954.35
2023-05-12T14:14:14.062Z,100956.57
2023-05-12T14:16:45.449Z,100963.71
2023-05-12T14:19:16.770Z,100969.95
2023-05-12T14:21:48.007Z,100973.11
2023-05-12T14:24:22.558Z,100972.16
2023-05-12T14:26:54.950Z,100974.17
2023-05-12T14:29:26.203Z,100973.04
2023-05-12T14:31:57.652Z,100968.94
2023-05-12T14:34:29.575Z,100967.39
2023-05-12T14:37:01.769Z,100966.04
2023-05-12T14:39:33.114Z,100968.06
2023-05-12T14:42:05.141Z,100964.48
2023-05-12T14:44:37.044Z,100962.70
2023-05-12T14:47:09.518Z,100966.32
2023-05-12T14:49:42.081Z,100964.09
2023-05-12T14:52:15.877Z,100969.27
2023-05-12T14:54:47.117Z,100964.99
2023-05-12T14:57:23.491Z,100964.07
2023-05-12T14:59:58.830Z,100962.63
2023-05-12T15:02:31.197Z,100958.96
2023-05-12T15:05:03.657Z,100960.14
2023-05-12T15:07:36.257Z,100961.23
2023-05-12T15:10:09.349Z,100966.47
2023-05-12T15:12:40.666Z,100971.60
2023-05-12T15:15:13.443Z,100975.00
2023-05-12T15:17:44.799Z,100976.11
2023-05-12T15:20:17.664Z,100977.48
2023-05-12T15:22:50.455Z,100980.48
2023-05-12T15:25:22.155Z,100979.30
2023-05-12T15:27:55.633Z,100975.58
2023-05-12T15:30:27.314Z,100977.63
2023-05-12T15:32:58.695Z,100974.85
2023-05-12T15:35:30.394Z,100979.34
2023-05-12T15:38:02.227Z,100979.34
2023-05-12T15:40:33.732Z,100978.73
2023-05-12T15:43:06.397Z,100979.97
2023-05-12T15:45:38.588Z,100981.14
2023-05-12T15:48:10.993Z,100976.37
2023-05-12T15:50:42.660Z,100978.34
2023-05-12T15:53:14.029Z,100975.65
2023-05-12T15:55:45.276Z,100978.76
2023-05-12T15:58:16.378Z,100980.57
2023-05-12T16:00:48.099Z,100986.61
2023-05-12T16:03:19.518Z,100990.61
2023-05-12T16:05:51.393Z,100995.17
2023-05-12T16:08:24.149Z,100998.59
2023-05-12T16:10:55.267Z,100999.05
2023-05-12T16:13:26.862Z,101005.41
2023-05-12T16:15:58.289Z,101006.27
2023-05-12T16:18:32.329Z,101009.77
2023-05-12T16:21:04.207Z,101010.83
2023-05-12T16:23:35.888Z,101009.93
2023-05-12T16:26:07.650Z,101009.98
2023-05-12T16:28:39.107Z,101009.13
2023-05-12T16:31:11.515Z,101010.59
2023-05-12T16:33:43.315Z,101008.40
2023-05-12T16:36:16.116Z,101002.90
2023-05-12T16:38:48.536Z,100998.80
2023-05-12T16:41:20.343Z,100996.08
2023-05-12T16:43:53.501Z,100999.00
2023-05-12T16:46:25.205Z,100993.45
2023-05-12T16:48:56.533Z,100994.27
2023-05-12T16:51:31.445Z,100997.81
2023-05-12T16:54:03.550Z,101000.41
2023-05-12T16:56:35.622Z,100996.98
2023-05-12T16:59:07.119Z,100996.70
2023-05-12T17:01:39.746Z,100993.85
2023-05-12T17:04:12.486Z,100993.27
2023-05-12T17:06:44.192Z,100995.48
2023-05-12T17:09:16.007Z,100991.70
2023-05-12T17:11:47.210Z,100995.27
2023-05-12T17:14:19.477Z,100999.16
2023-05-12T17:16:50.953Z,100994.56
2023-05-12T17:19:22.561Z,100994.50
2023-05-12T17:21:54.074Z,100992.79
2023-05-12T17:24:26.042Z,100997.20
2023-05-12T17:26:57.942Z,100997.03
2023-05-12T17:29:29.694Z,100998.58
2023-05-12T17:32:02.281Z,100993.31
2023-05-12T17:34:33.790Z,100994.05
2023-05-12T17:37:06.106Z,100996.66
2023-05-12T17:39:41.117Z,101003.90
2023-05-12T17:42:13.589Z,101004.45
2023-05-12T17:44:45.434Z,101003.52
2023-05-12T17:47:16.976Z,101005.75
2023-05-12T17:49:48.590Z,101006.48
2023-05-12T17:52:19.905Z,101005.09
2023-05-12T17:54:55.022Z,101007.15
2023-05-12T17:57:27.022Z,101010.23
2023-05-12T17:59:58.884Z,101012.39
2023-05-12T18:02:30.978Z,101016.79
2023-05-12T18:05:02.588Z,101022.28
2023-05-12T18:07:35.239Z,101024.37
2023-05-12T18:10:10.338Z,101028.84
2023-05-12T18:12:41.852Z,101031.66
2023-05-12T18:15:14.337Z,101034.27
2023-05-12T18:17:46.005Z,101036.64
2023-05-12T18:20:17.873Z,101036.70
2023-05-12T18:22:50.968Z,101037.52
2023-05-12T18:25:22.608Z,101036.45
2023-05-12T18:27:54.119Z,101035.45
2023-05-12T18:30:25.722Z,101036.09
2023-05-12T18:32:57.186Z,101039.15
2023-05-12T18:35:29.593Z,101044.20
2023-05-12T18:38:01.301Z,101046.21
2023-05-12T18:40:32.781Z,101047.73
2023-05-12T18:43:04.225Z,101052.90
2023-05-12T18:45:35.412Z,101050.55
2023-05-12T18:48:07.107Z,101055.83
2023-05-12T18:50:38.464Z,101057.11
2023-05-12T18:53:10.172Z,101057.11
2023-05-12T18:55:41.706Z,101061.99
2023-05-12T18:58:12.877Z,101059.71
2023-05-12T19:00:44.027Z,101059.64
2023-05-12T19:03:16.459Z,101058.40
2023-05-12T19:05:49.101Z,101060.21
2023-05-12T19:08:22.425Z,101060.02
2023-05-12T19:10:54.044Z,101065.40
2023-05-12T19:13:25.313Z,101068.10
2023-05-12T19:15:56.373Z,101070.48
2023-05-12T19:18:27.907Z,101071.83
2023-05-12T19:20:59.443Z,101072.37
2023-05-12T19:23:31.722Z,101077.39
2023-05-12T19:26:03.262Z,101081.27
2023-05-12T19:28:35.110Z,101086.06
2023-05-12T19:31:06.658Z,101085.55
2023-05-12T19:33:39.054Z,101085.48
2023-05-12T19:36:12.197Z,101087.54
2023-05-12T19:38:44.397Z,101088.77
2023-05-12T19:41:15.837Z,101086.60
2023-05-12T19:43:46.885Z,101088.61
2023-05-12T19:46:18.060Z,101092.38
2023-05-12T19:48:49.955Z,101096.58
2023-05-12T19:51:21.589Z,101107.02
2023-05-12T19:53:52.798Z,101110.45
2023-05-12T19:56:24.454Z,101121.72
2023-05-12T19:58:55.884Z,101127.39
2023-05-12T20:01:27.352Z,101132.62
2023-05-12T20:03:59.498Z,101137.70
2023-05-12T20:06:32.083Z,101140.45
2023-05-12T20:09:03.462Z,101142.63
2023-05-12T20:11:34.819Z,101145.16
2023-05-12T20:14:06.162Z,101151.32
2023-05-12T20:16:38.436Z,101158.04
2023-05-12T20:19:10.038Z,101157.88
2023-05-12T20:21:42.565Z,101159.35
2023-05-12T20:24:14.074Z,101159.20
2023-05-12T20:26:45.453Z,101155.77
2023-05-12T20:29:20.970Z,101159.45
2023-05-12T20:31:53.740Z,101160.30
2023-05-12T20:34:25.453Z,101163.23
2023-05-12T20:36:57.721Z,101162.03
2023-05-12T20:39:29.266Z,101156.41
2023-05-12T20:42:00.961Z,101153.90
2023-05-12T20:44:32.381Z,101154.70
2023-05-12T20:47:04.359Z,101153.86
2023-05-12T20:49:35.567Z,101158.05
2023-05-12T20:52:08.779Z,101159.43
2023-05-12T20:54:40.149Z,101155.18
2023-05-12T20:57:12.548Z,101159.20
2023-05-12T20:59:45.295Z,101160.16
2023-05-12T21:02:18.926Z,101160.11
2023-05-12T21:04:50.683Z,101165.08
2023-05-12T21:07:24.594Z,101164.04
2023-05-12T21:09:58.325Z,101165.88
2023-05-12T21:12:30.228Z,101169.48
2023-05-12T21:15:01.976Z,101172.77
2023-05-12T21:17:33.270Z,101173.75
2023-05-12T21:20:05.147Z,101175.64
2023-05-12T21:22:40.857Z,101174.55
2023-05-12T21:25:13.137Z,101175.01
2023-05-12T21:27:45.885Z,101171.87
2023-05-12T21:30:18.286Z,101173.05
2023-05-12T21:32:49.760Z,101173.02
2023-05-12T21:35:21.421Z,101173.35
2023-05-12T21:37:53.087Z,101175.63
2023-05-12T21:40:24.788Z,101172.70
2023-05-12T21:42:56.291Z,101175.09
2023-05-12T21:45:28.109Z,101180.15
2023-05-12T21:47:59.547Z,101183.66
2023-05-12T21:50:30.833Z,101188.73
2023-05-12T21:53:02.422Z,101190.77
2023-05-12T21:55:36.781Z,101191.75
2023-05-12T21:58:08.357Z,101197.54
2023-05-12T22:00:39.836Z,101206.44
2023-05-12T22:03:11.468Z,101211.02
2023-05-12T22:05:43.025Z,101216.13
2023-05-12T22:08:14.450Z,101217.20
2023-05-12T22:10:46.217Z,101218.02
2023-05-12T22:13:17.872Z,101216.71
2023-05-12T22:15:49.683Z,101221.04
2023-05-12T22:18:22.077Z,101219.58
2023-05-12T22:20:53.354Z,101221.73
2023-05-12T22:23:24.539Z,101224.86
2023-05-12T22:25:56.125Z,101223.52
2023-05-12T22:28:27.882Z,101227.30
2023-05-12T22:30:59.560Z,101228.14
2023-05-12T22:33:31.909Z,101228.42
2023-05-12T22:36:04.599Z,101232.98
2023-05-12T22:38:36.088Z,101231.73
2023-05-12T22:41:07.820Z,101228.82
2023-05-12T22:43:39.302Z,101229.57
2023-05-12T22:46:11.077Z,101225.12
2023-05-12T22:48:42.829Z,101226.96
2023-05-12T22:51:14.653Z,101227.42
2023-05-12T22:53:45.987Z,101229.58
2023-05-12T22:56:17.622Z,101229.41
2023-05-12T22:58:49.480Z,101230.24
2023-05-12T23:01:20.882Z,101230.86
2023-05-12T23:03:52.546Z,101231.90
2023-05-12T23:06:24.554Z,101231.73
2023-05-12T23:08:56.569Z,101234.90
2023-05-12T23:11:27.934Z,101238.06
2023-05-12T23:13:59.789Z,101237.65
2023-05-12T23:16:31.286Z,101236.20
2023-05-12T23:19:03.917Z,101235.73
2023-05-12T23:21:35.867Z,101233.52
2023-05-12T23:24:09.042Z,101229.68
2023-05-12T23:26:40.702Z,101229.62
2023-05-12T23:29:12.117Z,101234.06
2023-05-12T23:31:43.880Z,101236.47
2023-05-12T23:34:15.419Z,101236.52
2023-05-12T23:36:46.555Z,101236.87
2023-05-12T23:39:18.054Z,101234.75
2023-05-12T23:41:51.199Z,101232.80
2023-05-12T23:44:22.479Z,101232.61
2023-05-12T23:46:53.747Z,101223.46
2023-05-12T23:49:25.204Z,101223.34
2023-05-12T23:51:56.627Z,101224.98
2023-05-12T23:54:28.999Z,101225.52
2023-05-12T23:57:00.417Z,101230.23
2023-05-12T23:59:32.089Z,101228.41
